Time;durP1;ratioP1;P1;durP2;ratioP2;P2;SDS_P1;SDS_P2;PMS_P1;PMS_P2;Temp;Humidity;BMP_temperature;BMP_pressure;BME280_temperature;BME280_humidity;BME280_pressure;Samples;Min_cycle;Max_cycle;Signal;HPM_P1;HPM_P2
2023/10/29 00:01:31;;;;;;;2.00;1.75;;;;;;;7.01;100.00;97017.19;1223963;75;2992101;-75
2023/10/29 00:04:04;;;;;;;2.45;2.25;;;;;;;6.84;100.00;97022.34;1224835;75;3040733;-74
2023/10/29 00:06:37;;;;;;;2.60;2.25;;;;;;;6.95;100.00;97014.38;1224815;75;2953992;-75
2023/10/29 00:09:10;;;;;;;1.80;1.70;;;;;;;6.98;100.00;97008.00;1227494;75;2926930;-73
2023/10/29 00:11:46;;;;;;;2.60;2.00;;;;;;;6.83;100.00;97016.16;1210334;75;4033784;-76
2023/10/29 00:14:18;;;;;;;3.90;2.90;;;;;;;6.45;100.00;97005.25;1223690;75;2984633;-76
2023/10/29 00:16:51;;;;;;;3.15;2.70;;;;;;;6.77;100.00;97019.97;1226622;75;2917284;-74
2023/10/29 00:19:24;;;;;;;2.85;2.30;;;;;;;6.76;100.00;97016.50;1225932;75;2959146;-74
2023/10/29 00:21:56;;;;;;;2.10;1.80;;;;;;;6.70;100.00;97020.31;1225992;75;2953506;-75
2023/10/29 00:24:29;;;;;;;2.70;2.00;;;;;;;6.58;100.00;97017.38;1198543;75;4925133;-75
2023/10/29 00:27:05;;;;;;;2.15;1.70;;;;;;;6.67;100.00;97005.69;1216294;75;3801519;-73
2023/10/29 00:29:37;;;;;;;2.50;1.80;;;;;;;6.47;100.00;97003.59;1227493;75;2923376;-75
2023/10/29 00:32:10;;;;;;;2.80;1.90;;;;;;;6.45;100.00;96999.81;1225988;75;2979266;-76
2023/10/29 00:34:43;;;;;;;2.05;1.65;;;;;;;6.52;100.00;97004.91;1226067;75;2962296;-74
2023/10/29 00:37:17;;;;;;;1.30;1.20;;;;;;;6.61;100.00;97007.53;1226923;75;2988621;-73
2023/10/29 00:39:49;;;;;;;1.50;1.30;;;;;;;6.58;100.00;97020.09;1225759;75;2959819;-77
2023/10/29 00:42:25;;;;;;;1.48;1.35;;;;;;;6.54;100.00;97016.81;1197001;75;5086781;-73
2023/10/29 00:44:58;;;;;;;1.45;1.30;;;;;;;6.49;100.00;97019.41;1227346;75;2940036;-73
2023/10/29 00:47:31;;;;;;;1.25;1.10;;;;;;;6.48;100.00;97015.19;1228140;75;2920374;-75
2023/10/29 00:50:03;;;;;;;3.30;1.20;;;;;;;6.45;100.00;97018.84;1227589;75;2919736;-75
2023/10/29 00:52:36;;;;;;;1.00;0.90;;;;;;;6.47;100.00;97014.44;1200798;75;4804515;-75
2023/10/29 00:55:10;;;;;;;1.30;1.05;;;;;;;6.42;100.00;97022.47;1227186;75;2914775;-75
2023/10/29 00:57:45;;;;;;;0.80;0.80;;;;;;;6.45;100.00;97022.31;1224055;75;3013656;-74
2023/10/29 01:00:21;;;;;;;1.00;0.90;;;;;;;6.35;100.00;97026.28;1225955;75;2932602;-74
2023/10/29 01:02:53;;;;;;;1.00;0.90;;;;;;;6.38;100.00;97023.41;1227297;75;2919501;-74
2023/10/29 01:05:27;;;;;;;0.90;0.90;;;;;;;6.36;100.00;97014.97;1227635;75;2920600;-70
2023/10/29 01:08:00;;;;;;;0.80;0.80;;;;;;;6.40;100.00;97025.69;1228007;75;2916457;-76
2023/10/29 01:10:33;;;;;;;0.95;0.85;;;;;;;6.37;100.00;97024.63;1226145;67;2933833;-73
2023/10/29 01:13:08;;;;;;;1.30;1.05;;;;;;;6.16;100.00;97028.38;1213148;75;4025504;-75
2023/10/29 01:15:40;;;;;;;1.55;1.00;;;;;;;6.16;100.00;97020.22;1223808;75;3069389;-74
2023/10/29 01:18:13;;;;;;;1.05;0.95;;;;;;;6.29;100.00;97026.19;1224117;75;3073751;-74
2023/10/29 01:20:46;;;;;;;1.10;1.00;;;;;;;6.12;100.00;97022.34;1223087;75;3056605;-72
2023/10/29 01:23:20;;;;;;;1.05;0.95;;;;;;;6.28;100.00;97015.78;1226033;75;2920992;-75
2023/10/29 01:25:53;;;;;;;0.85;0.85;;;;;;;6.27;100.00;97012.28;1227576;75;2915040;-74
2023/10/29 01:28:28;;;;;;;0.70;0.70;;;;;;;6.24;100.00;97004.31;1227527;75;2916557;-74
2023/10/29 01:31:01;;;;;;;1.20;1.00;;;;;;;6.05;100.00;97004.41;1227329;75;2923516;-76
2023/10/29 01:33:34;;;;;;;1.40;1.30;;;;;;;5.79;100.00;97012.19;1227509;75;2918203;-77
2023/10/29 01:36:07;;;;;;;1.75;1.40;;;;;;;5.73;100.00;97014.06;1227072;75;2920543;-76
2023/10/29 01:38:40;;;;;;;2.00;1.60;;;;;;;5.99;100.00;97019.88;1224167;75;3010288;-75
2023/10/29 01:41:13;;;;;;;1.55;1.20;;;;;;;6.14;100.00;97006.34;1227550;75;2920308;-75
2023/10/29 01:43:49;;;;;;;1.75;1.40;;;;;;;6.14;100.00;97007.09;1226118;75;2953241;-76
2023/10/29 01:46:21;;;;;;;1.65;1.30;;;;;;;6.06;100.00;97021.47;1227805;75;2918826;-75
2023/10/29 01:48:54;;;;;;;1.30;1.20;;;;;;;5.87;100.00;97018.81;1227195;67;2925829;-74
2023/10/29 01:51:27;;;;;;;2.90;2.10;;;;;;;5.60;100.00;97021.63;1222367;75;2979279;-78
2023/10/29 01:54:00;;;;;;;2.65;1.90;;;;;;;5.53;100.00;97023.47;1213525;75;3925936;-78
2023/10/29 01:56:34;;;;;;;2.85;2.40;;;;;;;5.39;100.00;97029.53;1227782;75;2916116;-75
2023/10/29 01:59:09;;;;;;;3.05;1.80;;;;;;;5.82;100.00;97016.75;1227020;75;2922733;-74
2023/10/29 02:01:42;;;;;;;1.60;1.50;;;;;;;5.86;100.00;97027.44;1227613;75;2915783;-76
2023/10/29 02:04:15;;;;;;;1.70;1.40;;;;;;;5.82;100.00;97018.69;1210673;75;4067606;-75
2023/10/29 02:06:47;;;;;;;4.70;1.65;;;;;;;5.56;100.00;97016.38;1223779;75;3057477;-75
2023/10/29 02:09:20;;;;;;;1.85;1.60;;;;;;;5.87;100.00;97018.81;1220496;75;3028706;-78
2023/10/29 02:11:53;;;;;;;1.70;1.50;;;;;;;5.82;100.00;97015.97;1225997;75;2916102;-75
2023/10/29 02:14:29;;;;;;;1.80;1.30;;;;;;;5.73;100.00;97009.38;1225383;75;2958306;-75
2023/10/29 02:17:02;;;;;;;1.70;1.40;;;;;;;5.62;100.00;97014.53;1221741;75;3080906;-74
2023/10/29 02:19:35;;;;;;;1.60;1.40;;;;;;;5.49;100.00;97014.72;1224355;75;3060016;-75
2023/10/29 02:22:10;;;;;;;1.80;1.40;;;;;;;5.30;100.00;97019.44;1224623;75;3015438;-74
2023/10/29 02:24:43;;;;;;;2.05;1.65;;;;;;;5.28;100.00;97026.53;1221818;75;3064997;-74
2023/10/29 02:27:15;;;;;;;1.50;1.40;;;;;;;5.43;100.00;97010.38;1225611;75;2947900;-77
2023/10/29 02:29:48;;;;;;;1.70;1.50;;;;;;;5.59;100.00;97017.41;1224148;75;3055395;-73
2023/10/29 02:32:20;;;;;;;2.05;1.50;;;;;;;5.56;100.00;97005.50;1227237;75;2925218;-77
2023/10/29 02:34:53;;;;;;;2.00;1.60;;;;;;;5.39;100.00;97020.63;1223907;75;3036110;-78
2023/10/29 02:37:28;;;;;;;2.20;1.70;;;;;;;5.53;100.00;97019.97;1214670;75;3870736;-75
2023/10/29 02:40:01;;;;;;;2.90;1.75;;;;;;;5.40;100.00;97012.03;1224050;75;3025615;-75
2023/10/29 02:42:34;;;;;;;1.60;1.45;;;;;;;5.51;100.00;97017.00;1227717;75;2917324;-73
2023/10/29 02:45:07;;;;;;;3.45;1.80;;;;;;;5.09;100.00;97012.25;1222648;75;3090306;-74
2023/10/29 02:47:40;;;;;;;2.50;2.20;;;;;;;5.01;100.00;97017.22;1224621;75;2934691;-79
2023/10/29 02:50:13;;;;;;;2.00;1.50;;;;;;;5.19;100.00;97015.69;1223420;75;2972682;-77
2023/10/29 02:52:49;;;;;;;1.65;1.40;;;;;;;5.44;100.00;97001.03;1226790;75;2915870;-76
2023/10/29 02:55:21;;;;;;;1.90;1.50;;;;;;;5.50;100.00;97001.91;1227417;75;2926091;-75
2023/10/29 02:57:54;;;;;;;1.75;1.30;;;;;;;5.45;100.00;97008.69;1226018;75;2924247;-74
2023/10/29 03:00:26;;;;;;;1.40;1.30;;;;;;;5.51;100.00;97012.31;1215403;75;3801407;-73
2023/10/29 03:02:59;;;;;;;1.20;1.10;;;;;;;5.51;100.00;97019.72;1223322;75;3018897;-74
2023/10/29 03:05:31;;;;;;;1.25;1.10;;;;;;;5.25;100.00;97016.59;1227088;75;2916606;-75
2023/10/29 03:08:07;;;;;;;2.00;1.70;;;;;;;5.05;100.00;97017.06;1223815;75;3087395;-76
2023/10/29 03:10:40;;;;;;;1.80;1.60;;;;;;;5.27;100.00;97012.22;1224728;75;2986326;-78
2023/10/29 03:13:12;;;;;;;1.40;1.30;;;;;;;5.38;100.00;97017.16;1225639;75;2954297;-74
2023/10/29 03:15:45;;;;;;;1.65;1.30;;;;;;;5.43;100.00;97018.50;1227980;75;2915517;-76
2023/10/29 03:18:18;;;;;;;1.30;1.20;;;;;;;5.45;100.00;97024.25;1226997;75;2914956;-74
2023/10/29 03:20:50;;;;;;;1.20;1.10;;;;;;;5.32;100.00;97014.31;1213487;75;3975250;-77
2023/10/29 03:23:26;;;;;;;1.15;1.05;;;;;;;5.38;100.00;97027.28;1227412;75;2917958;-76
2023/10/29 03:26:05;;;;;;;1.05;1.00;;;;;;;5.38;100.00;97021.84;1226067;75;2922920;-75
2023/10/29 03:28:37;;;;;;;2.50;1.10;;;;;;;5.35;100.00;97018.09;1223641;75;3074486;-74
2023/10/29 03:31:19;;;;;;;1.00;0.90;;;;;;;5.48;100.00;97017.91;1227356;75;2921025;-76
2023/10/29 03:33:52;;;;;;;2.25;1.20;;;;;;;5.17;100.00;97028.97;1227711;75;2913884;-73
2023/10/29 03:36:25;;;;;;;2.55;1.60;;;;;;;5.29;100.00;97022.59;1225253;75;3013951;-76
2023/10/29 03:39:00;;;;;;;1.30;1.10;;;;;;;5.39;100.00;97007.06;1224026;75;3076420;-76
2023/10/29 03:41:33;;;;;;;1.20;0.90;;;;;;;5.40;100.00;97019.44;1226446;75;2915238;-74
2023/10/29 03:44:05;;;;;;;1.20;1.10;;;;;;;5.50;100.00;97018.94;1213090;75;3804802;-76
2023/10/29 03:46:38;;;;;;;2.15;1.10;;;;;;;5.39;100.00;97029.53;1225766;75;2921104;-76
2023/10/29 03:49:15;;;;;;;3.65;1.50;;;;;;;5.39;100.00;97037.69;1227963;75;2920420;-77
2023/10/29 03:51:49;;;;;;;1.40;1.30;;;;;;;5.52;100.00;97024.66;1225706;75;2932507;-76
2023/10/29 03:54:26;;;;;;;1.50;1.20;;;;;;;5.61;100.00;97025.88;1227504;75;2929340;-75
2023/10/29 03:56:59;;;;;;;1.25;1.20;;;;;;;5.38;100.00;97038.88;1224714;75;3013371;-75
2023/10/29 03:59:31;;;;;;;1.30;1.10;;;;;;;5.50;100.00;97037.94;1224195;75;3069394;-75
2023/10/29 04:02:04;;;;;;;1.10;0.95;;;;;;;5.32;100.00;97036.03;1224608;75;3023359;-74
2023/10/29 04:04:37;;;;;;;1.85;1.45;;;;;;;5.22;100.00;97037.25;1224417;75;3105709;-73
2023/10/29 04:07:10;;;;;;;1.65;1.30;;;;;;;5.36;100.00;97038.56;1227974;75;2917489;-75
2023/10/29 04:09:45;;;;;;;1.10;1.00;;;;;;;5.20;100.00;97038.94;1227285;75;2919235;-75
2023/10/29 04:12:18;;;;;;;1.40;1.30;;;;;;;5.38;100.00;97027.28;1221652;67;3058476;-74
2023/10/29 04:14:51;;;;;;;1.00;0.90;;;;;;;5.33;100.00;97039.50;1226514;75;2932288;-73
2023/10/29 04:17:24;;;;;;;1.45;1.30;;;;;;;5.11;100.00;97028.81;1228979;75;2883568;-76
2023/10/29 04:19:57;;;;;;;1.75;1.45;;;;;;;5.25;100.00;97025.50;1227925;75;2921187;-71
2023/10/29 04:22:30;;;;;;;1.20;1.10;;;;;;;5.23;100.00;97027.91;1227432;75;2920677;-73
2023/10/29 04:25:06;;;;;;;1.05;0.80;;;;;;;5.21;100.00;97021.44;1224713;75;2928097;-74
2023/10/29 04:27:38;;;;;;;0.80;0.80;;;;;;;5.23;100.00;97033.34;1224542;75;2925302;-77
2023/10/29 04:30:13;;;;;;;3.65;1.00;;;;;;;5.13;100.00;97018.28;1223869;75;2922640;-76
2023/10/29 04:32:45;;;;;;;1.75;1.40;;;;;;;4.91;100.00;97011.06;1223558;75;2941522;-76
2023/10/29 04:35:18;;;;;;;2.35;1.80;;;;;;;5.14;100.00;97011.63;1225384;75;2929869;-74
2023/10/29 04:37:51;;;;;;;1.70;1.50;;;;;;;5.07;100.00;97017.38;1224800;75;2925853;-71
2023/10/29 04:40:26;;;;;;;1.50;1.20;;;;;;;5.27;100.00;97016.91;1225074;75;2925080;-70
2023/10/29 04:42:59;;;;;;;1.45;1.25;;;;;;;5.25;100.00;97019.31;1224794;75;2932878;-77
2023/10/29 04:45:31;;;;;;;1.35;1.05;;;;;;;5.18;100.00;97019.63;1225031;75;2927347;-78
2023/10/29 04:48:04;;;;;;;1.10;1.00;;;;;;;5.19;100.00;97007.56;1225054;75;2927373;-75
2023/10/29 04:50:37;;;;;;;1.10;1.00;;;;;;;5.23;100.00;97008.91;1222082;75;3045339;-78
2023/10/29 04:53:09;;;;;;;1.40;1.10;;;;;;;5.15;100.00;97012.38;1224071;75;2926025;-75
2023/10/29 04:55:44;;;;;;;1.40;1.25;;;;;;;4.99;100.00;97005.34;1225884;75;2916224;-73
2023/10/29 04:58:17;;;;;;;1.15;1.05;;;;;;;5.20;100.00;97017.97;1222402;75;3027109;-75
2023/10/29 05:00:50;;;;;;;1.40;1.10;;;;;;;5.22;100.00;97009.34;1224864;75;2927060;-77
2023/10/29 05:03:22;;;;;;;1.20;1.10;;;;;;;5.20;100.00;97011.78;1221341;75;3088561;-71
2023/10/29 05:05:55;;;;;;;1.10;1.00;;;;;;;5.20;100.00;97009.06;1225399;75;2921413;-77
2023/10/29 05:08:27;;;;;;;1.20;0.90;;;;;;;5.13;100.00;97002.00;1223102;75;2920729;-75
2023/10/29 05:11:03;;;;;;;0.85;0.85;;;;;;;5.14;100.00;97008.91;1212681;75;3812998;-77
2023/10/29 05:13:35;;;;;;;1.20;1.10;;;;;;;5.03;100.00;97009.41;1222429;75;2940251;-77
2023/10/29 05:16:09;;;;;;;0.90;0.90;;;;;;;5.07;100.00;97001.84;1225535;75;2923011;-75
2023/10/29 05:18:42;;;;;;;1.30;1.20;;;;;;;5.08;100.00;97002.63;1225492;75;2914927;-75
2023/10/29 05:21:14;;;;;;;1.20;1.10;;;;;;;5.09;100.00;96996.72;1225588;75;2918593;-72
2023/10/29 05:23:47;;;;;;;1.30;1.20;;;;;;;5.17;100.00;97004.53;1223775;75;2916679;-75
2023/10/29 05:26:22;;;;;;;1.20;1.10;;;;;;;5.23;100.00;97010.88;1223523;75;2958746;-75
2023/10/29 05:28:55;;;;;;;1.40;1.30;;;;;;;5.13;100.00;97007.44;1224678;75;2926617;-75
2023/10/29 05:31:28;;;;;;;3.90;1.70;;;;;;;4.95;100.00;97021.75;1220937;75;3076500;-75
2023/10/29 05:34:01;;;;;;;3.70;2.55;;;;;;;5.08;100.00;97022.34;1224867;75;2919617;-75
2023/10/29 05:36:34;;;;;;;2.55;2.10;;;;;;;5.19;100.00;97026.56;1222622;75;3039060;-73
2023/10/29 05:39:07;;;;;;;4.05;3.30;;;;;;;5.21;100.00;97026.84;1224307;75;2926536;-71
2023/10/29 05:41:43;;;;;;;4.10;3.40;;;;;;;5.20;100.00;97014.50;1225057;75;2924425;-71
2023/10/29 05:44:15;;;;;;;3.50;3.10;;;;;;;5.24;100.00;97020.50;1225767;75;2924756;-74
2023/10/29 05:46:48;;;;;;;8.30;6.60;;;;;;;5.41;100.00;97020.94;1223615;75;2921569;-74
2023/10/29 05:49:21;;;;;;;5.05;4.30;;;;;;;5.42;100.00;97008.88;1224900;75;2921176;-73
2023/10/29 05:51:53;;;;;;;4.40;3.85;;;;;;;5.39;100.00;97015.19;1225143;75;2916730;-76
2023/10/29 05:54:26;;;;;;;6.35;5.25;;;;;;;5.44;100.00;97014.59;1225513;75;2914325;-75
2023/10/29 05:57:01;;;;;;;7.05;5.35;;;;;;;5.49;100.00;97019.41;1224907;75;2922115;-77
2023/10/29 05:59:34;;;;;;;5.25;4.20;;;;;;;5.46;100.00;97014.88;1225492;75;2918980;-71
2023/10/29 06:02:08;;;;;;;4.55;3.35;;;;;;;5.62;100.00;97024.66;1225041;75;2924640;-73
2023/10/29 06:04:41;;;;;;;3.30;2.50;;;;;;;5.64;100.00;97024.94;1225039;75;2918484;-71
2023/10/29 06:07:13;;;;;;;2.15;1.95;;;;;;;5.74;100.00;97024.44;1225121;75;2916242;-73
2023/10/29 06:09:46;;;;;;;2.20;1.70;;;;;;;5.84;100.00;97019.72;1222641;75;3048429;-72
2023/10/29 06:12:21;;;;;;;2.80;2.10;;;;;;;5.62;100.00;97025.38;1225684;75;2917705;-75
2023/10/29 06:14:54;;;;;;;4.05;2.70;;;;;;;5.89;100.00;97038.13;1225456;75;2920977;-75
2023/10/29 06:17:27;;;;;;;4.25;3.10;;;;;;;5.92;100.00;97023.63;1222684;75;2996552;-73
2023/10/29 06:20:00;;;;;;;5.00;3.80;;;;;;;5.75;100.00;97042.25;1224542;75;2919675;-75
2023/10/29 06:22:32;;;;;;;5.15;4.05;;;;;;;6.00;100.00;97045.81;1224394;75;2917325;-75
2023/10/29 06:25:05;;;;;;;5.70;4.20;;;;;;;6.12;100.00;97044.09;1222818;75;2939490;-76
2023/10/29 06:27:40;;;;;;;5.55;4.65;;;;;;;6.41;100.00;97032.59;1224721;75;2920146;-75
2023/10/29 06:30:14;;;;;;;5.05;4.50;;;;;;;7.80;100.00;97034.88;1222836;75;2975521;-72
2023/10/29 06:32:48;;;;;;;5.40;4.70;;;;;;;11.34;100.00;97026.25;1225405;75;2924292;-72
2023/10/29 06:35:20;;;;;;;4.45;3.80;;;;;;;11.72;100.00;97038.47;1225369;75;2928872;-76
2023/10/29 06:37:53;;;;;;;3.95;3.10;;;;;;;10.01;100.00;97037.59;1223783;75;2914510;-73
2023/10/29 06:40:27;;;;;;;5.80;3.00;;;;;;;9.68;100.00;97040.84;1225802;75;2921188;-74
2023/10/29 06:43:03;;;;;;;3.45;2.60;;;;;;;10.45;100.00;97043.88;1223270;75;2964618;-75
2023/10/29 06:45:36;;;;;;;2.95;2.50;;;;;;;13.07;92.60;97037.44;1225591;75;2928107;-76
2023/10/29 06:48:09;;;;;;;2.65;2.10;;;;;;;13.14;93.22;97047.88;1215864;75;3094451;-75
2023/10/29 06:50:44;;;;;;;2.55;2.30;;;;;;;15.31;75.26;97041.38;1225225;75;2917368;-70
2023/10/29 06:53:17;;;;;;;3.60;3.00;;;;;;;13.43;84.92;97032.00;1221687;75;3065962;-74
2023/10/29 06:55:50;;;;;;;6.20;5.20;;;;;;;12.45;97.94;97039.66;1224581;75;2926672;-77
2023/10/29 06:58:25;;;;;;;4.80;4.15;;;;;;;13.45;89.47;97048.00;1221140;75;3067689;-73
2023/10/29 07:00:57;;;;;;;3.30;2.90;;;;;;;12.44;99.17;97038.94;1224563;75;2922181;-73
2023/10/29 07:03:30;;;;;;;2.75;2.20;;;;;;;13.81;85.30;97040.47;1224716;75;2920487;-76
2023/10/29 07:06:14;;;;;;;2.30;2.10;;;;;;;16.33;70.85;97035.75;1223968;75;2940595;-73
2023/10/29 07:08:47;;;;;;;1.95;1.60;;;;;;;16.72;69.85;97063.94;1221634;75;3053847;-76
2023/10/29 07:11:21;;;;;;;4.55;3.35;;;;;;;17.66;66.99;97052.16;1223920;75;2929932;-76
2023/10/29 07:13:56;;;;;;;3.15;2.40;;;;;;;16.41;67.90;97057.97;1224168;75;2921627;-75
2023/10/29 07:16:29;;;;;;;3.30;2.25;;;;;;;14.67;74.63;97048.19;1223126;75;2929144;-78
2023/10/29 07:19:02;;;;;;;3.90;2.95;;;;;;;15.29;75.11;97041.88;1224335;75;2932396;-74
2023/10/29 07:21:34;;;;;;;3.65;2.90;;;;;;;15.43;74.82;97050.22;1221144;75;3098438;-76
2023/10/29 07:24:08;;;;;;;4.55;3.25;;;;;;;14.52;80.72;97058.09;1221590;75;2977349;-73
2023/10/29 07:26:41;;;;;;;3.80;2.90;;;;;;;13.33;89.60;97053.56;1224566;75;2924498;-75
2023/10/29 07:29:16;;;;;;;5.70;3.65;;;;;;;13.89;85.80;97048.91;1222676;75;2976759;-78
2023/10/29 07:31:49;;;;;;;3.25;2.55;;;;;;;13.62;87.36;97065.88;1220982;75;2957376;-78
2023/10/29 07:34:21;;;;;;;2.55;2.00;;;;;;;12.44;97.13;97074.59;1222170;75;3080243;-76
2023/10/29 07:36:54;;;;;;;2.85;2.05;;;;;;;14.11;84.86;97067.25;1224494;75;2918845;-74
2023/10/29 07:39:26;;;;;;;2.95;1.80;;;;;;;17.47;69.01;97054.34;1208579;75;3917547;-75
2023/10/29 07:42:01;;;;;;;3.10;1.80;;;;;;;19.25;59.58;97044.00;1210060;75;3888442;-74
2023/10/29 07:44:36;;;;;;;2.50;1.50;;;;;;;21.50;54.49;97049.56;1223944;75;2922655;-75
2023/10/29 07:47:11;;;;;;;1.50;1.20;;;;;;;19.94;57.73;97049.72;1224497;75;2938081;-79
2023/10/29 07:49:43;;;;;;;1.35;0.90;;;;;;;20.93;57.31;97037.00;1224674;75;2925362;-77
2023/10/29 07:52:16;;;;;;;1.50;1.25;;;;;;;21.62;54.59;97052.66;1224764;75;2924891;-73
2023/10/29 07:54:49;;;;;;;1.70;1.15;;;;;;;21.31;56.03;97044.47;1209676;75;4058924;-76
2023/10/29 07:57:21;;;;;;;2.45;1.50;;;;;;;22.46;51.83;97048.50;1225463;75;2922380;-78
2023/10/29 07:59:57;;;;;;;4.70;3.00;;;;;;;20.67;55.08;97051.38;1223004;75;2965421;-74
2023/10/29 08:02:30;;;;;;;3.75;2.65;;;;;;;22.82;52.45;97055.59;1225012;75;2922738;-78
2023/10/29 08:05:02;;;;;;;3.55;2.40;;;;;;;20.56;54.67;97049.69;1225195;75;2916256;-74
2023/10/29 08:07:35;;;;;;;4.05;2.30;;;;;;;22.86;51.01;97053.88;1224359;75;2949756;-76
2023/10/29 08:10:10;;;;;;;3.55;2.40;;;;;;;21.90;51.40;97049.50;1224641;75;2925060;-76
2023/10/29 08:12:43;;;;;;;3.00;2.20;;;;;;;21.32;52.49;97045.19;1221549;75;3110455;-75
2023/10/29 08:15:18;;;;;;;2.95;2.20;;;;;;;20.55;54.05;97048.97;1224864;75;2918793;-76
2023/10/29 08:17:50;;;;;;;3.60;2.10;;;;;;;21.12;54.20;97053.25;1221380;75;3082368;-79
2023/10/29 08:20:23;;;;;;;3.15;2.35;;;;;;;20.21;55.26;97050.09;1224169;75;2927474;-76
2023/10/29 08:22:56;;;;;;;3.05;2.25;;;;;;;21.34;55.22;97042.59;1224674;75;2914822;-74
2023/10/29 08:25:28;;;;;;;3.45;2.35;;;;;;;20.58;55.47;97047.84;1220796;75;3064662;-74
2023/10/29 08:28:01;;;;;;;3.30;2.40;;;;;;;20.80;57.61;97045.56;1225069;75;2916689;-74
2023/10/29 08:30:36;;;;;;;2.30;1.90;;;;;;;20.10;59.36;97044.16;1220577;75;3170396;-75
2023/10/29 08:33:09;;;;;;;5.60;2.05;;;;;;;18.84;60.99;97045.69;1224444;75;2918340;-74
2023/10/29 08:35:46;;;;;;;4.65;3.00;;;;;;;17.84;65.47;97058.06;1225268;75;2918758;-76
2023/10/29 08:38:19;;;;;;;4.95;2.90;;;;;;;16.90;70.20;97051.28;1223661;75;2923829;-75
2023/10/29 08:40:52;;;;;;;3.90;2.10;;;;;;;19.18;62.94;97046.75;1224451;75;2956242;-74
2023/10/29 08:43:24;;;;;;;4.70;2.55;;;;;;;17.00;69.09;97061.38;1224749;75;2924696;-75
2023/10/29 08:45:59;;;;;;;3.95;2.50;;;;;;;17.67;69.11;97059.16;1222368;75;2939989;-75
2023/10/29 08:48:32;;;;;;;3.90;2.40;;;;;;;16.44;72.58;97053.41;1224470;75;2932690;-76
2023/10/29 08:51:05;;;;;;;4.10;2.60;;;;;;;16.25;75.28;97061.75;1224769;75;2914507;-74
2023/10/29 08:53:37;;;;;;;5.60;3.05;;;;;;;16.08;74.61;97054.50;1221790;75;2963457;-77
2023/10/29 08:56:11;;;;;;;6.00;3.15;;;;;;;15.92;80.07;97052.75;1222181;75;3064529;-75
2023/10/29 08:58:43;;;;;;;4.70;2.60;;;;;;;16.08;77.93;97048.97;1223811;75;2947194;-78
2023/10/29 09:01:19;;;;;;;3.90;2.95;;;;;;;16.37;80.21;97049.97;1225168;75;2923983;-76
2023/10/29 09:03:52;;;;;;;4.20;2.70;;;;;;;17.80;76.54;97047.31;1222047;75;3071076;-77
2023/10/29 09:06:25;;;;;;;2.95;2.40;;;;;;;17.74;71.08;97046.69;1225027;75;2920498;-76
2023/10/29 09:08:57;;;;;;;5.45;2.80;;;;;;;16.80;73.19;97056.50;1221285;75;3057330;-75
2023/10/29 09:11:30;;;;;;;4.00;2.80;;;;;;;17.32;72.85;97041.09;1224563;75;2918111;-73
2023/10/29 09:14:04;;;;;;;2.55;2.10;;;;;;;18.80;69.10;97036.22;1225634;75;2917477;-73
2023/10/29 09:16:39;;;;;;;3.45;2.60;;;;;;;18.35;65.79;97029.09;1222959;75;2996531;-72
2023/10/29 09:19:12;;;;;;;3.60;2.15;;;;;;;17.08;69.03;97027.53;1225124;75;2918018;-73
2023/10/29 09:21:45;;;;;;;3.60;1.70;;;;;;;16.90;70.48;97024.38;1224344;75;2925890;-74
2023/10/29 09:24:18;;;;;;;3.35;1.80;;;;;;;17.16;69.65;97029.09;1220765;75;3053294;-75
2023/10/29 09:26:51;;;;;;;2.85;1.70;;;;;;;17.34;72.11;97037.78;1223114;75;2928514;-74
2023/10/29 09:29:23;;;;;;;2.50;1.35;;;;;;;17.46;68.75;97034.25;1224490;75;2922171;-77
2023/10/29 09:31:59;;;;;;;4.80;1.35;;;;;;;17.86;69.32;97034.06;1223722;75;2942354;-75
2023/10/29 09:34:32;;;;;;;3.40;1.55;;;;;;;17.57;68.49;97047.06;1224906;75;2917244;-75
2023/10/29 09:37:04;;;;;;;3.90;1.60;;;;;;;17.79;67.52;97040.25;1224855;75;2924597;-77
2023/10/29 09:39:37;;;;;;;2.30;1.20;;;;;;;17.73;67.20;97036.91;1222711;75;2930915;-75
2023/10/29 09:42:12;;;;;;;3.10;1.50;;;;;;;17.86;68.05;97063.78;1224824;75;2927433;-75
2023/10/29 09:44:45;;;;;;;2.55;1.30;;;;;;;18.27;67.31;97040.13;1224066;75;2925662;-77
2023/10/29 09:47:23;;;;;;;3.95;1.55;;;;;;;18.88;65.51;97051.63;1224804;75;2927504;-76
2023/10/29 09:49:57;;;;;;;4.00;1.40;;;;;;;18.42;65.54;97042.25;1226042;67;2921319;-77
2023/10/29 09:52:32;;;;;;;3.55;1.30;;;;;;;18.47;65.26;97049.66;1225301;75;2925301;-76
2023/10/29 09:55:05;;;;;;;2.35;1.20;;;;;;;18.39;65.81;97052.41;1225776;75;2918803;-77
2023/10/29 09:57:38;;;;;;;2.70;1.60;;;;;;;18.23;67.01;97046.03;1222677;75;2997140;-75
2023/10/29 10:00:15;;;;;;;2.80;1.50;;;;;;;18.50;66.80;97040.28;1224974;75;2926093;-75
2023/10/29 10:02:59;;;;;;;2.35;1.35;;;;;;;19.57;64.12;97032.41;1224877;75;2923364;-75
2023/10/29 10:05:34;;;;;;;3.10;1.50;;;;;;;19.29;62.72;97036.06;1225643;75;2918763;-75
2023/10/29 10:08:07;;;;;;;3.60;1.70;;;;;;;19.35;62.80;97035.88;1221581;75;3069596;-74
2023/10/29 10:10:45;;;;;;;2.75;1.60;;;;;;;19.59;62.80;97024.28;1224652;75;2924569;-76
2023/10/29 10:13:18;;;;;;;2.50;1.30;;;;;;;20.21;61.20;97019.50;1223296;75;2957830;-74
2023/10/29 10:15:51;;;;;;;3.35;1.25;;;;;;;20.29;61.32;97011.16;1225481;75;2920257;-77
2023/10/29 10:18:26;;;;;;;6.35;1.40;;;;;;;19.49;63.43;97011.50;1225432;75;2922334;-76
2023/10/29 10:21:02;;;;;;;5.45;1.40;;;;;;;18.79;65.12;97013.31;1224927;75;2926260;-77
2023/10/29 10:23:50;;;;;;;2.35;1.30;;;;;;;18.16;66.80;96999.63;1225248;75;2923326;-77
2023/10/29 10:26:34;;;;;;;5.10;3.30;;;;;;;17.96;68.34;96997.59;1225649;75;2920994;-74
2023/10/29 10:29:09;;;;;;;3.60;1.60;;;;;;;17.74;69.96;96996.09;1222506;75;3052113;-76
2023/10/29 10:31:42;;;;;;;3.25;1.30;;;;;;;17.80;70.93;96982.88;1225308;75;2924902;-73
2023/10/29 10:34:19;;;;;;;2.20;1.00;;;;;;;18.03;70.39;96985.84;1224085;75;2917333;-73
2023/10/29 10:36:53;;;;;;;3.20;1.00;;;;;;;18.24;70.13;96983.03;1225222;75;2943377;-76
2023/10/29 10:39:26;;;;;;;1.75;1.10;;;;;;;18.29;70.46;96982.13;1225158;75;2930546;-76
2023/10/29 10:42:00;;;;;;;1.80;0.90;;;;;;;18.04;71.45;96988.06;1224922;75;2917921;-75
2023/10/29 10:44:33;;;;;;;3.25;1.30;;;;;;;17.72;72.77;96985.56;1225738;75;2914916;-76
2023/10/29 10:47:09;;;;;;;2.20;1.60;;;;;;;18.16;72.09;96983.00;1225317;75;2919620;-75
2023/10/29 10:49:46;;;;;;;1.85;1.50;;;;;;;17.68;71.27;96972.06;1225381;75;2923313;-76
2023/10/29 10:52:20;;;;;;;4.10;1.10;;;;;;;18.24;70.82;96971.94;1223058;75;3039158;-74
2023/10/29 10:54:53;;;;;;;2.55;1.35;;;;;;;18.02;70.38;96971.25;1225033;75;2931551;-76
2023/10/29 10:57:26;;;;;;;8.40;5.20;;;;;;;17.88;70.66;96959.53;1220276;75;3086479;-74
2023/10/29 11:00:05;;;;;;;3.50;1.80;;;;;;;17.46;73.46;96975.38;1224897;75;2926023;-78
2023/10/29 11:02:41;;;;;;;4.05;1.30;;;;;;;17.23;73.63;96969.63;1222966;75;2970736;-75
2023/10/29 11:05:19;;;;;;;1.15;0.90;;;;;;;17.29;74.18;96964.69;1222223;75;3011950;-79
2023/10/29 11:07:52;;;;;;;1.70;0.90;;;;;;;17.27;72.91;96980.34;1225040;75;2930478;-75
2023/10/29 11:10:25;;;;;;;1.55;0.80;;;;;;;17.31;73.95;96969.69;1224939;75;2918599;-74
2023/10/29 11:12:58;;;;;;;1.50;1.00;;;;;;;17.54;73.65;96978.97;1224630;75;2928036;-77
2023/10/29 11:15:31;;;;;;;3.65;1.15;;;;;;;16.80;76.97;96979.84;1225355;75;2919175;-78
2023/10/29 11:18:05;;;;;;;9.80;5.05;;;;;;;17.25;74.72;96980.91;1222270;75;2983925;-75
2023/10/29 11:20:59;;;;;;;4.00;2.00;;;;;;;16.98;73.71;96982.97;1224801;75;2917612;-78
2023/10/29 11:23:34;;;;;;;2.05;0.80;;;;;;;16.97;69.86;96990.53;1225939;75;2920789;-75
2023/10/29 11:26:25;;;;;;;1.85;0.95;;;;;;;17.02;68.92;96994.47;1225768;75;2924034;-77
2023/10/29 11:28:58;;;;;;;2.75;1.10;;;;;;;17.07;67.24;96998.41;1226002;75;2932566;-74
2023/10/29 11:31:30;;;;;;;2.20;0.90;;;;;;;17.27;67.57;97003.25;1226475;75;2928729;-76
2023/10/29 11:34:36;;;;;;;2.45;0.90;;;;;;;17.24;67.18;97007.81;1223909;75;3018724;-73
2023/10/29 11:37:42;;;;;;;3.30;1.20;;;;;;;17.17;66.41;97013.25;1226873;75;2927236;-74
2023/10/29 11:40:34;;;;;;;2.20;1.10;;;;;;;17.30;68.53;97009.72;1225388;75;2966640;-72
2023/10/29 11:43:22;;;;;;;2.20;1.00;;;;;;;17.35;67.75;97008.84;1225054;75;3009399;-73
2023/10/29 11:46:04;;;;;;;3.50;1.20;;;;;;;17.23;68.15;97013.88;1227959;75;2922006;-75
2023/10/29 11:48:37;;;;;;;2.40;0.70;;;;;;;17.21;67.95;97002.59;1220758;75;3107024;-76